sensor_id;sensor_type;location;lat;lon;timestamp;P1;durP1;ratioP1;P2;durP2;ratioP2
76576;SDS011;65441;44.748;37.600;2023-04-03T00:01:31;4.63;;;1.20;;
76576;SDS011;65441;44.748;37.600;2023-04-03T00:04:00;8.32;;;1.80;;
76576;SDS011;65441;44.748;37.600;2023-04-03T00:06:28;5.75;;;1.52;;
76576;SDS011;65441;44.748;37.600;2023-04-03T00:08:57;6.88;;;1.67;;
76576;SDS011;65441;44.748;37.600;2023-04-03T00:11:27;7.80;;;1.77;;
76576;SDS011;65441;44.748;37.600;2023-04-03T00:13:56;6.47;;;1.70;;
76576;SDS011;65441;44.748;37.600;2023-04-03T00:16:25;7.25;;;1.50;;
76576;SDS011;65441;44.748;37.600;2023-04-03T00:18:53;5.13;;;1.63;;
76576;SDS011;65441;44.748;37.600;2023-04-03T00:21:22;5.82;;;1.30;;
76576;SDS011;65441;44.748;37.600;2023-04-03T00:23:51;5.50;;;1.83;;
76576;SDS011;65441;44.748;37.600;2023-04-03T00:26:19;7.50;;;1.80;;
76576;SDS011;65441;44.748;37.600;2023-04-03T00:28:52;10.15;;;1.70;;
76576;SDS011;65441;44.748;37.600;2023-04-03T00:31:21;9.02;;;2.00;;
76576;SDS011;65441;44.748;37.600;2023-04-03T00:33:50;7.38;;;1.45;;
76576;SDS011;65441;44.748;37.600;2023-04-03T00:36:19;7.70;;;1.70;;
76576;SDS011;65441;44.748;37.600;2023-04-03T00:38:47;6.85;;;1.90;;
76576;SDS011;65441;44.748;37.600;2023-04-03T00:41:16;10.27;;;2.15;;
76576;SDS011;65441;44.748;37.600;2023-04-03T00:43:45;9.73;;;1.83;;
76576;SDS011;65441;44.748;37.600;2023-04-03T00:46:15;7.72;;;1.70;;
76576;SDS011;65441;44.748;37.600;2023-04-03T00:48:44;8.95;;;2.00;;
76576;SDS011;65441;44.748;37.600;2023-04-03T00:51:16;8.27;;;2.30;;
76576;SDS011;65441;44.748;37.600;2023-04-03T00:53:49;8.30;;;1.63;;
76576;SDS011;65441;44.748;37.600;2023-04-03T00:56:21;5.50;;;1.52;;
76576;SDS011;65441;44.748;37.600;2023-04-03T00:58:55;8.18;;;1.73;;
76576;SDS011;65441;44.748;37.600;2023-04-03T01:01:29;5.13;;;1.70;;
76576;SDS011;65441;44.748;37.600;2023-04-03T01:03:59;6.45;;;1.98;;
76576;SDS011;65441;44.748;37.600;2023-04-03T01:06:31;6.72;;;2.00;;
76576;SDS011;65441;44.748;37.600;2023-04-03T01:09:06;7.13;;;1.98;;
76576;SDS011;65441;44.748;37.600;2023-04-03T01:11:36;7.45;;;1.95;;
76576;SDS011;65441;44.748;37.600;2023-04-03T01:14:04;6.45;;;1.75;;
76576;SDS011;65441;44.748;37.600;2023-04-03T01:16:34;6.70;;;2.05;;
76576;SDS011;65441;44.748;37.600;2023-04-03T01:19:03;7.10;;;1.85;;
76576;SDS011;65441;44.748;37.600;2023-04-03T01:24:32;6.63;;;2.00;;
76576;SDS011;65441;44.748;37.600;2023-04-03T01:27:04;10.02;;;2.58;;
76576;SDS011;65441;44.748;37.600;2023-04-03T01:29:34;12.07;;;2.50;;
76576;SDS011;65441;44.748;37.600;2023-04-03T01:32:06;7.80;;;2.15;;
76576;SDS011;65441;44.748;37.600;2023-04-03T01:34:35;13.63;;;2.88;;
76576;SDS011;65441;44.748;37.600;2023-04-03T01:37:04;9.93;;;2.40;;
76576;SDS011;65441;44.748;37.600;2023-04-03T01:39:33;9.40;;;2.17;;
76576;SDS011;65441;44.748;37.600;2023-04-03T01:42:02;8.43;;;2.42;;
76576;SDS011;65441;44.748;37.600;2023-04-03T01:44:36;6.70;;;2.40;;
76576;SDS011;65441;44.748;37.600;2023-04-03T01:47:06;7.80;;;2.50;;
76576;SDS011;65441;44.748;37.600;2023-04-03T01:49:36;5.97;;;2.22;;
76576;SDS011;65441;44.748;37.600;2023-04-03T01:52:05;10.73;;;2.78;;
76576;SDS011;65441;44.748;37.600;2023-04-03T01:54:34;7.00;;;2.42;;
76576;SDS011;65441;44.748;37.600;2023-04-03T01:57:03;10.23;;;2.60;;
76576;SDS011;65441;44.748;37.600;2023-04-03T01:59:31;8.32;;;2.40;;
76576;SDS011;65441;44.748;37.600;2023-04-03T02:02:00;9.43;;;2.38;;
76576;SDS011;65441;44.748;37.600;2023-04-03T02:04:30;9.57;;;2.40;;
76576;SDS011;65441;44.748;37.600;2023-04-03T02:06:59;9.45;;;2.75;;
76576;SDS011;65441;44.748;37.600;2023-04-03T02:09:28;9.43;;;2.70;;
76576;SDS011;65441;44.748;37.600;2023-04-03T02:11:56;7.05;;;2.40;;
76576;SDS011;65441;44.748;37.600;2023-04-03T02:14:25;12.00;;;2.80;;
76576;SDS011;65441;44.748;37.600;2023-04-03T02:16:54;10.20;;;3.08;;
76576;SDS011;65441;44.748;37.600;2023-04-03T02:19:23;8.63;;;2.67;;
76576;SDS011;65441;44.748;37.600;2023-04-03T02:21:53;13.40;;;3.03;;
76576;SDS011;65441;44.748;37.600;2023-04-03T02:24:22;10.85;;;2.90;;
76576;SDS011;65441;44.748;37.600;2023-04-03T02:26:50;9.73;;;3.03;;
76576;SDS011;65441;44.748;37.600;2023-04-03T02:29:19;8.98;;;2.78;;
76576;SDS011;65441;44.748;37.600;2023-04-03T02:31:48;10.57;;;3.10;;
76576;SDS011;65441;44.748;37.600;2023-04-03T02:34:17;11.25;;;3.60;;
76576;SDS011;65441;44.748;37.600;2023-04-03T02:36:47;7.40;;;2.88;;
76576;SDS011;65441;44.748;37.600;2023-04-03T02:39:18;8.65;;;2.97;;
76576;SDS011;65441;44.748;37.600;2023-04-03T02:41:48;14.88;;;3.78;;
76576;SDS011;65441;44.748;37.600;2023-04-03T02:44:22;12.35;;;3.53;;
76576;SDS011;65441;44.748;37.600;2023-04-03T02:46:52;15.00;;;3.47;;
76576;SDS011;65441;44.748;37.600;2023-04-03T02:49:21;11.95;;;3.55;;
76576;SDS011;65441;44.748;37.600;2023-04-03T02:51:50;10.05;;;3.10;;
76576;SDS011;65441;44.748;37.600;2023-04-03T02:54:20;12.60;;;3.67;;
76576;SDS011;65441;44.748;37.600;2023-04-03T02:56:53;13.63;;;3.95;;
76576;SDS011;65441;44.748;37.600;2023-04-03T02:59:22;7.35;;;2.90;;
76576;SDS011;65441;44.748;37.600;2023-04-03T03:01:51;8.77;;;3.08;;
76576;SDS011;65441;44.748;37.600;2023-04-03T03:04:20;10.90;;;3.08;;
76576;SDS011;65441;44.748;37.600;2023-04-03T03:06:49;9.63;;;3.70;;
76576;SDS011;65441;44.748;37.600;2023-04-03T03:09:19;10.88;;;3.58;;
76576;SDS011;65441;44.748;37.600;2023-04-03T03:11:49;8.27;;;3.40;;
76576;SDS011;65441;44.748;37.600;2023-04-03T03:14:18;8.40;;;3.50;;
76576;SDS011;65441;44.748;37.600;2023-04-03T03:16:46;10.25;;;3.58;;
76576;SDS011;65441;44.748;37.600;2023-04-03T03:19:15;8.90;;;3.55;;
76576;SDS011;65441;44.748;37.600;2023-04-03T03:21:44;9.10;;;3.50;;
76576;SDS011;65441;44.748;37.600;2023-04-03T03:24:13;10.27;;;4.20;;
76576;SDS011;65441;44.748;37.600;2023-04-03T03:26:44;9.95;;;3.85;;
76576;SDS011;65441;44.748;37.600;2023-04-03T03:29:12;13.70;;;4.43;;
76576;SDS011;65441;44.748;37.600;2023-04-03T03:31:41;13.95;;;4.40;;
76576;SDS011;65441;44.748;37.600;2023-04-03T03:34:10;8.80;;;4.18;;
76576;SDS011;65441;44.748;37.600;2023-04-03T03:36:39;10.77;;;4.03;;
76576;SDS011;65441;44.748;37.600;2023-04-03T03:39:09;13.48;;;4.80;;
76576;SDS011;65441;44.748;37.600;2023-04-03T03:41:38;12.05;;;3.95;;
76576;SDS011;65441;44.748;37.600;2023-04-03T03:44:08;11.18;;;3.25;;
76576;SDS011;65441;44.748;37.600;2023-04-03T03:46:37;8.88;;;3.55;;
76576;SDS011;65441;44.748;37.600;2023-04-03T03:49:06;10.88;;;3.65;;
76576;SDS011;65441;44.748;37.600;2023-04-03T03:51:35;14.35;;;3.88;;
76576;SDS011;65441;44.748;37.600;2023-04-03T03:54:04;10.48;;;3.60;;
76576;SDS011;65441;44.748;37.600;2023-04-03T03:56:33;10.52;;;3.38;;
76576;SDS011;65441;44.748;37.600;2023-04-03T03:59:02;9.52;;;4.05;;
76576;SDS011;65441;44.748;37.600;2023-04-03T04:01:33;14.32;;;3.78;;
76576;SDS011;65441;44.748;37.600;2023-04-03T04:04:02;11.95;;;3.60;;
76576;SDS011;65441;44.748;37.600;2023-04-03T04:06:32;12.60;;;3.83;;
76576;SDS011;65441;44.748;37.600;2023-04-03T04:09:04;11.90;;;4.10;;
76576;SDS011;65441;44.748;37.600;2023-04-03T04:11:33;11.27;;;3.90;;
76576;SDS011;65441;44.748;37.600;2023-04-03T04:14:03;8.15;;;3.53;;
76576;SDS011;65441;44.748;37.600;2023-04-03T04:16:33;8.07;;;3.28;;
76576;SDS011;65441;44.748;37.600;2023-04-03T04:19:07;9.98;;;3.58;;
76576;SDS011;65441;44.748;37.600;2023-04-03T04:21:38;10.68;;;3.70;;
76576;SDS011;65441;44.748;37.600;2023-04-03T04:24:09;12.60;;;3.85;;
76576;SDS011;65441;44.748;37.600;2023-04-03T04:26:38;10.32;;;3.83;;
76576;SDS011;65441;44.748;37.600;2023-04-03T04:29:10;10.90;;;4.00;;
76576;SDS011;65441;44.748;37.600;2023-04-03T04:31:41;15.15;;;4.25;;
76576;SDS011;65441;44.748;37.600;2023-04-03T04:34:09;12.05;;;4.32;;
76576;SDS011;65441;44.748;37.600;2023-04-03T04:36:39;8.75;;;3.85;;
76576;SDS011;65441;44.748;37.600;2023-04-03T04:39:08;13.90;;;4.30;;
76576;SDS011;65441;44.748;37.600;2023-04-03T04:41:37;11.05;;;4.10;;
76576;SDS011;65441;44.748;37.600;2023-04-03T04:44:06;10.02;;;3.10;;
76576;SDS011;65441;44.748;37.600;2023-04-03T04:46:36;10.82;;;3.83;;
76576;SDS011;65441;44.748;37.600;2023-04-03T04:49:07;9.70;;;3.40;;
76576;SDS011;65441;44.748;37.600;2023-04-03T04:51:36;10.18;;;3.40;;
76576;SDS011;65441;44.748;37.600;2023-04-03T04:54:05;10.07;;;3.15;;
76576;SDS011;65441;44.748;37.600;2023-04-03T04:56:33;7.38;;;2.63;;
76576;SDS011;65441;44.748;37.600;2023-04-03T04:59:02;13.70;;;3.60;;
76576;SDS011;65441;44.748;37.600;2023-04-03T05:01:31;10.30;;;3.20;;
76576;SDS011;65441;44.748;37.600;2023-04-03T05:04:09;12.05;;;3.63;;
76576;SDS011;65441;44.748;37.600;2023-04-03T05:06:39;8.75;;;2.90;;
76576;SDS011;65441;44.748;37.600;2023-04-03T05:09:13;15.70;;;3.60;;
76576;SDS011;65441;44.748;37.600;2023-04-03T05:11:44;9.73;;;3.05;;
76576;SDS011;65441;44.748;37.600;2023-04-03T05:14:15;9.70;;;3.55;;
76576;SDS011;65441;44.748;37.600;2023-04-03T05:16:44;10.10;;;2.83;;
76576;SDS011;65441;44.748;37.600;2023-04-03T05:19:15;11.80;;;3.63;;
76576;SDS011;65441;44.748;37.600;2023-04-03T05:21:44;7.15;;;2.80;;
76576;SDS011;65441;44.748;37.600;2023-04-03T05:24:15;10.77;;;3.47;;
76576;SDS011;65441;44.748;37.600;2023-04-03T05:26:44;10.90;;;3.20;;
76576;SDS011;65441;44.748;37.600;2023-04-03T05:29:14;8.25;;;3.38;;
76576;SDS011;65441;44.748;37.600;2023-04-03T05:31:43;12.95;;;2.95;;
76576;SDS011;65441;44.748;37.600;2023-04-03T05:34:14;10.88;;;3.25;;
76576;SDS011;65441;44.748;37.600;2023-04-03T05:36:44;10.18;;;3.20;;
76576;SDS011;65441;44.748;37.600;2023-04-03T05:39:14;9.40;;;3.00;;
76576;SDS011;65441;44.748;37.600;2023-04-03T05:41:44;9.85;;;2.95;;
76576;SDS011;65441;44.748;37.600;2023-04-03T05:44:13;12.57;;;2.67;;
76576;SDS011;65441;44.748;37.600;2023-04-03T05:46:44;9.25;;;3.00;;
76576;SDS011;65441;44.748;37.600;2023-04-03T05:49:14;10.23;;;2.85;;
76576;SDS011;65441;44.748;37.600;2023-04-03T05:51:43;9.55;;;2.80;;
76576;SDS011;65441;44.748;37.600;2023-04-03T05:54:24;9.00;;;3.08;;
76576;SDS011;65441;44.748;37.600;2023-04-03T05:57:04;8.00;;;2.75;;
76576;SDS011;65441;44.748;37.600;2023-04-03T05:59:33;8.90;;;2.42;;
76576;SDS011;65441;44.748;37.600;2023-04-03T06:02:02;11.32;;;2.95;;
76576;SDS011;65441;44.748;37.600;2023-04-03T06:04:32;8.27;;;3.15;;
76576;SDS011;65441;44.748;37.600;2023-04-03T06:07:01;6.80;;;2.08;;
76576;SDS011;65441;44.748;37.600;2023-04-03T06:09:29;11.20;;;3.08;;
76576;SDS011;65441;44.748;37.600;2023-04-03T06:11:59;12.80;;;2.65;;
76576;SDS011;65441;44.748;37.600;2023-04-03T06:14:29;8.75;;;2.60;;
76576;SDS011;65441;44.748;37.600;2023-04-03T06:16:58;10.63;;;2.72;;
76576;SDS011;65441;44.748;37.600;2023-04-03T06:19:27;6.97;;;2.80;;
76576;SDS011;65441;44.748;37.600;2023-04-03T06:21:58;10.98;;;2.45;;
76576;SDS011;65441;44.748;37.600;2023-04-03T06:24:27;8.82;;;2.35;;
76576;SDS011;65441;44.748;37.600;2023-04-03T06:26:56;5.72;;;1.88;;
76576;SDS011;65441;44.748;37.600;2023-04-03T06:29:26;8.90;;;2.78;;
76576;SDS011;65441;44.748;37.600;2023-04-03T06:31:55;9.07;;;2.67;;
76576;SDS011;65441;44.748;37.600;2023-04-03T06:34:23;5.13;;;1.90;;
76576;SDS011;65441;44.748;37.600;2023-04-03T06:36:52;7.03;;;2.03;;
76576;SDS011;65441;44.748;37.600;2023-04-03T06:39:22;8.52;;;2.17;;
76576;SDS011;65441;44.748;37.600;2023-04-03T06:41:51;7.15;;;1.83;;
76576;SDS011;65441;44.748;37.600;2023-04-03T06:44:28;7.20;;;2.30;;
76576;SDS011;65441;44.748;37.600;2023-04-03T06:46:57;7.75;;;2.38;;
76576;SDS011;65441;44.748;37.600;2023-04-03T06:49:25;12.13;;;2.10;;
76576;SDS011;65441;44.748;37.600;2023-04-03T06:51:54;8.23;;;2.40;;
76576;SDS011;65441;44.748;37.600;2023-04-03T06:54:25;8.98;;;1.52;;
76576;SDS011;65441;44.748;37.600;2023-04-03T06:56:54;6.78;;;2.45;;
76576;SDS011;65441;44.748;37.600;2023-04-03T06:59:22;4.25;;;0.90;;
76576;SDS011;65441;44.748;37.600;2023-04-03T07:01:51;6.18;;;1.63;;
76576;SDS011;65441;44.748;37.600;2023-04-03T07:04:20;4.07;;;1.48;;
76576;SDS011;65441;44.748;37.600;2023-04-03T07:06:49;7.93;;;2.05;;
76576;SDS011;65441;44.748;37.600;2023-04-03T07:09:19;6.32;;;1.75;;
76576;SDS011;65441;44.748;37.600;2023-04-03T07:11:49;5.95;;;1.73;;
76576;SDS011;65441;44.748;37.600;2023-04-03T07:14:18;4.63;;;1.73;;
76576;SDS011;65441;44.748;37.600;2023-04-03T07:16:48;7.15;;;1.60;;
76576;SDS011;65441;44.748;37.600;2023-04-03T07:19:17;3.22;;;1.00;;
76576;SDS011;65441;44.748;37.600;2023-04-03T07:21:45;8.10;;;2.47;;
76576;SDS011;65441;44.748;37.600;2023-04-03T07:24:14;5.80;;;1.70;;
76576;SDS011;65441;44.748;37.600;2023-04-03T07:26:43;7.03;;;1.75;;
76576;SDS011;65441;44.748;37.600;2023-04-03T07:29:13;6.38;;;2.17;;
76576;SDS011;65441;44.748;37.600;2023-04-03T07:31:42;4.90;;;1.48;;
76576;SDS011;65441;44.748;37.600;2023-04-03T07:34:11;6.13;;;1.45;;
76576;SDS011;65441;44.748;37.600;2023-04-03T07:36:40;8.35;;;1.95;;
76576;SDS011;65441;44.748;37.600;2023-04-03T07:39:09;5.60;;;1.73;;
76576;SDS011;65441;44.748;37.600;2023-04-03T07:41:38;6.65;;;1.90;;
76576;SDS011;65441;44.748;37.600;2023-04-03T07:44:06;6.75;;;2.03;;
76576;SDS011;65441;44.748;37.600;2023-04-03T07:46:38;8.95;;;2.03;;
76576;SDS011;65441;44.748;37.600;2023-04-03T07:49:07;9.82;;;1.45;;
76576;SDS011;65441;44.748;37.600;2023-04-03T07:51:37;5.10;;;1.73;;
76576;SDS011;65441;44.748;37.600;2023-04-03T07:54:06;5.80;;;1.98;;
76576;SDS011;65441;44.748;37.600;2023-04-03T07:56:35;8.77;;;2.20;;
76576;SDS011;65441;44.748;37.600;2023-04-03T07:59:04;9.02;;;2.55;;
76576;SDS011;65441;44.748;37.600;2023-04-03T08:01:33;9.88;;;1.90;;
76576;SDS011;65441;44.748;37.600;2023-04-03T08:04:03;5.18;;;1.90;;
76576;SDS011;65441;44.748;37.600;2023-04-03T08:06:33;9.57;;;2.08;;
76576;SDS011;65441;44.748;37.600;2023-04-03T08:09:03;9.00;;;2.35;;
76576;SDS011;65441;44.748;37.600;2023-04-03T08:11:32;8.55;;;2.50;;
76576;SDS011;65441;44.748;37.600;2023-04-03T08:14:02;7.60;;;2.40;;
76576;SDS011;65441;44.748;37.600;2023-04-03T08:16:33;4.10;;;1.75;;
76576;SDS011;65441;44.748;37.600;2023-04-03T08:19:05;8.07;;;2.25;;
76576;SDS011;65441;44.748;37.600;2023-04-03T08:21:34;6.68;;;2.25;;
76576;SDS011;65441;44.748;37.600;2023-04-03T08:24:03;8.80;;;2.00;;
76576;SDS011;65441;44.748;37.600;2023-04-03T08:26:32;6.75;;;2.20;;
76576;SDS011;65441;44.748;37.600;2023-04-03T08:29:01;8.18;;;2.42;;
76576;SDS011;65441;44.748;37.600;2023-04-03T08:31:30;10.63;;;2.35;;
76576;SDS011;65441;44.748;37.600;2023-04-03T08:33:59;7.55;;;2.08;;
76576;SDS011;65441;44.748;37.600;2023-04-03T08:36:32;8.93;;;2.20;;
76576;SDS011;65441;44.748;37.600;2023-04-03T08:39:03;7.90;;;1.80;;
76576;SDS011;65441;44.748;37.600;2023-04-03T08:41:33;4.72;;;1.60;;
76576;SDS011;65441;44.748;37.600;2023-04-03T08:44:04;6.15;;;1.80;;
76576;SDS011;65441;44.748;37.600;2023-04-03T08:46:46;6.57;;;1.85;;
76576;SDS011;65441;44.748;37.600;2023-04-03T08:49:25;7.28;;;2.13;;
76576;SDS011;65441;44.748;37.600;2023-04-03T08:52:00;7.75;;;1.90;;
76576;SDS011;65441;44.748;37.600;2023-04-03T08:54:34;4.53;;;1.38;;
76576;SDS011;65441;44.748;37.600;2023-04-03T08:59:39;10.38;;;1.90;;
76576;SDS011;65441;44.748;37.600;2023-04-03T09:02:15;7.20;;;2.33;;
76576;SDS011;65441;44.748;37.600;2023-04-03T09:04:51;4.88;;;1.45;;
76576;SDS011;65441;44.748;37.600;2023-04-03T09:07:23;8.95;;;2.50;;
76576;SDS011;65441;44.748;37.600;2023-04-03T09:10:00;5.25;;;1.88;;
76576;SDS011;65441;44.748;37.600;2023-04-03T09:12:32;7.00;;;2.65;;
76576;SDS011;65441;44.748;37.600;2023-04-03T09:15:06;6.53;;;2.17;;
76576;SDS011;65441;44.748;37.600;2023-04-03T09:17:46;8.43;;;2.50;;
76576;SDS011;65441;44.748;37.600;2023-04-03T09:20:26;7.47;;;2.78;;
76576;SDS011;65441;44.748;37.600;2023-04-03T09:23:09;4.57;;;2.05;;
76576;SDS011;65441;44.748;37.600;2023-04-03T09:25:44;7.00;;;2.20;;
76576;SDS011;65441;44.748;37.600;2023-04-03T09:28:13;11.10;;;2.85;;
76576;SDS011;65441;44.748;37.600;2023-04-03T09:30:42;9.00;;;2.22;;
76576;SDS011;65441;44.748;37.600;2023-04-03T09:33:11;8.18;;;2.63;;
76576;SDS011;65441;44.748;37.600;2023-04-03T09:35:40;10.80;;;2.45;;
76576;SDS011;65441;44.748;37.600;2023-04-03T09:38:20;7.38;;;2.75;;
76576;SDS011;65441;44.748;37.600;2023-04-03T09:40:49;5.70;;;1.98;;
76576;SDS011;65441;44.748;37.600;2023-04-03T09:43:30;4.53;;;0.98;;
76576;SDS011;65441;44.748;37.600;2023-04-03T09:46:18;8.80;;;2.40;;
76576;SDS011;65441;44.748;37.600;2023-04-03T09:48:55;7.10;;;2.50;;
76576;SDS011;65441;44.748;37.600;2023-04-03T09:51:26;7.22;;;2.40;;
76576;SDS011;65441;44.748;37.600;2023-04-03T09:53:57;8.05;;;2.97;;
76576;SDS011;65441;44.748;37.600;2023-04-03T09:56:27;8.27;;;2.70;;
76576;SDS011;65441;44.748;37.600;2023-04-03T09:59:11;4.85;;;1.98;;
76576;SDS011;65441;44.748;37.600;2023-04-03T10:01:43;9.32;;;2.30;;
76576;SDS011;65441;44.748;37.600;2023-04-03T10:04:36;7.68;;;2.30;;
76576;SDS011;65441;44.748;37.600;2023-04-03T10:10:15;8.70;;;2.30;;
76576;SDS011;65441;44.748;37.600;2023-04-03T10:12:49;8.18;;;1.88;;
76576;SDS011;65441;44.748;37.600;2023-04-03T10:15:33;14.82;;;2.70;;
76576;SDS011;65441;44.748;37.600;2023-04-03T10:18:12;7.63;;;2.33;;
76576;SDS011;65441;44.748;37.600;2023-04-03T10:20:55;9.68;;;2.65;;
76576;SDS011;65441;44.748;37.600;2023-04-03T10:23:31;6.22;;;2.13;;
76576;SDS011;65441;44.748;37.600;2023-04-03T10:26:10;8.82;;;2.10;;
76576;SDS011;65441;44.748;37.600;2023-04-03T10:28:43;8.93;;;2.65;;
76576;SDS011;65441;44.748;37.600;2023-04-03T10:31:21;6.47;;;2.00;;
76576;SDS011;65441;44.748;37.600;2023-04-03T10:33:57;6.78;;;2.20;;
76576;SDS011;65441;44.748;37.600;2023-04-03T10:36:37;8.10;;;2.40;;
76576;SDS011;65441;44.748;37.600;2023-04-03T10:39:14;7.70;;;2.38;;
76576;SDS011;65441;44.748;37.600;2023-04-03T10:41:55;8.52;;;2.50;;
76576;SDS011;65441;44.748;37.600;2023-04-03T10:44:32;7.07;;;2.53;;
76576;SDS011;65441;44.748;37.600;2023-04-03T10:47:11;6.22;;;2.33;;
76576;SDS011;65441;44.748;37.600;2023-04-03T10:49:48;5.80;;;2.00;;
76576;SDS011;65441;44.748;37.600;2023-04-03T10:52:24;7.60;;;2.38;;
76576;SDS011;65441;44.748;37.600;2023-04-03T10:55:01;9.88;;;2.72;;
76576;SDS011;65441;44.748;37.600;2023-04-03T10:57:36;6.10;;;2.50;;
76576;SDS011;65441;44.748;37.600;2023-04-03T11:00:06;8.82;;;2.30;;
76576;SDS011;65441;44.748;37.600;2023-04-03T11:02:45;6.63;;;2.45;;
76576;SDS011;65441;44.748;37.600;2023-04-03T11:05:22;8.10;;;2.45;;
76576;SDS011;65441;44.748;37.600;2023-04-03T11:08:01;7.25;;;2.20;;
76576;SDS011;65441;44.748;37.600;2023-04-03T11:10:37;6.05;;;1.58;;
76576;SDS011;65441;44.748;37.600;2023-04-03T11:13:13;7.22;;;1.90;;
76576;SDS011;65441;44.748;37.600;2023-04-03T11:15:45;5.50;;;2.00;;
76576;SDS011;65441;44.748;37.600;2023-04-03T11:18:14;6.50;;;2.10;;
76576;SDS011;65441;44.748;37.600;2023-04-03T11:20:49;7.45;;;2.20;;
76576;SDS011;65441;44.748;37.600;2023-04-03T11:23:25;5.70;;;1.80;;
76576;SDS011;65441;44.748;37.600;2023-04-03T11:26:00;7.25;;;2.47;;
76576;SDS011;65441;44.748;37.600;2023-04-03T11:28:37;8.10;;;2.33;;
76576;SDS011;65441;44.748;37.600;2023-04-03T11:31:10;6.93;;;2.00;;
76576;SDS011;65441;44.748;37.600;2023-04-03T11:33:50;6.28;;;2.08;;
76576;SDS011;65441;44.748;37.600;2023-04-03T11:36:25;4.55;;;1.58;;
76576;SDS011;65441;44.748;37.600;2023-04-03T11:38:59;8.50;;;3.40;;
76576;SDS011;65441;44.748;37.600;2023-04-03T11:41:35;12.70;;;2.58;;
76576;SDS011;65441;44.748;37.600;2023-04-03T11:44:13;18.88;;;7.10;;
76576;SDS011;65441;44.748;37.600;2023-04-03T11:46:58;48.05;;;18.23;;
76576;SDS011;65441;44.748;37.600;2023-04-03T11:58:27;152.65;;;39.75;;
76576;SDS011;65441;44.748;37.600;2023-04-03T12:01:03;29.73;;;11.35;;
76576;SDS011;65441;44.748;37.600;2023-04-03T12:09:25;125.50;;;43.58;;
76576;SDS011;65441;44.748;37.600;2023-04-03T12:12:00;118.93;;;41.65;;
76576;SDS011;65441;44.748;37.600;2023-04-03T12:14:48;75.90;;;29.10;;
76576;SDS011;65441;44.748;37.600;2023-04-03T12:17:22;39.47;;;21.65;;
76576;SDS011;65441;44.748;37.600;2023-04-03T12:19:54;15.18;;;6.88;;
76576;SDS011;65441;44.748;37.600;2023-04-03T12:22:25;10.90;;;3.75;;
76576;SDS011;65441;44.748;37.600;2023-04-03T12:24:54;18.83;;;8.18;;
76576;SDS011;65441;44.748;37.600;2023-04-03T12:27:25;11.98;;;4.35;;
76576;SDS011;65441;44.748;37.600;2023-04-03T12:29:59;16.35;;;5.30;;
76576;SDS011;65441;44.748;37.600;2023-04-03T12:35:31;12.65;;;3.05;;
76576;SDS011;65441;44.748;37.600;2023-04-03T12:40:48;11.98;;;3.90;;
76576;SDS011;65441;44.748;37.600;2023-04-03T12:46:12;8.07;;;2.78;;
76576;SDS011;65441;44.748;37.600;2023-04-03T12:48:49;10.25;;;3.35;;
76576;SDS011;65441;44.748;37.600;2023-04-03T12:51:21;10.65;;;3.22;;
76576;SDS011;65441;44.748;37.600;2023-04-03T12:53:57;10.40;;;3.47;;
76576;SDS011;65441;44.748;37.600;2023-04-03T12:59:13;7.93;;;3.20;;
76576;SDS011;65441;44.748;37.600;2023-04-03T13:01:43;10.25;;;3.63;;
76576;SDS011;65441;44.748;37.600;2023-04-03T13:04:25;11.48;;;3.58;;
76576;SDS011;65441;44.748;37.600;2023-04-03T13:06:56;11.25;;;3.75;;
76576;SDS011;65441;44.748;37.600;2023-04-03T13:09:26;7.35;;;2.60;;
76576;SDS011;65441;44.748;37.600;2023-04-03T13:11:56;7.38;;;2.47;;
76576;SDS011;65441;44.748;37.600;2023-04-03T13:14:28;10.25;;;3.53;;
76576;SDS011;65441;44.748;37.600;2023-04-03T13:16:58;12.02;;;3.60;;
76576;SDS011;65441;44.748;37.600;2023-04-03T13:19:32;11.68;;;4.55;;
76576;SDS011;65441;44.748;37.600;2023-04-03T13:22:02;15.10;;;5.40;;
76576;SDS011;65441;44.748;37.600;2023-04-03T13:24:37;11.32;;;4.82;;
76576;SDS011;65441;44.748;37.600;2023-04-03T13:27:06;7.32;;;2.65;;
76576;SDS011;65441;44.748;37.600;2023-04-03T13:29:38;8.07;;;3.25;;
76576;SDS011;65441;44.748;37.600;2023-04-03T13:32:13;9.40;;;2.78;;
76576;SDS011;65441;44.748;37.600;2023-04-03T13:34:48;7.00;;;2.75;;
76576;SDS011;65441;44.748;37.600;2023-04-03T13:37:20;8.15;;;2.85;;
76576;SDS011;65441;44.748;37.600;2023-04-03T13:39:57;6.93;;;2.30;;
76576;SDS011;65441;44.748;37.600;2023-04-03T13:42:31;9.40;;;3.05;;
76576;SDS011;65441;44.748;37.600;2023-04-03T13:45:16;8.10;;;2.40;;
76576;SDS011;65441;44.748;37.600;2023-04-03T13:47:47;7.55;;;2.40;;
76576;SDS011;65441;44.748;37.600;2023-04-03T13:50:20;9.73;;;3.33;;
76576;SDS011;65441;44.748;37.600;2023-04-03T13:52:52;7.10;;;2.67;;
76576;SDS011;65441;44.748;37.600;2023-04-03T13:55:28;7.65;;;2.85;;
76576;SDS011;65441;44.748;37.600;2023-04-03T13:57:59;8.55;;;2.70;;
76576;SDS011;65441;44.748;37.600;2023-04-03T14:00:32;3.67;;;1.38;;
76576;SDS011;65441;44.748;37.600;2023-04-03T14:03:12;6.20;;;2.28;;
76576;SDS011;65441;44.748;37.600;2023-04-03T14:05:43;8.63;;;3.45;;
76576;SDS011;65441;44.748;37.600;2023-04-03T14:08:13;10.43;;;2.95;;
76576;SDS011;65441;44.748;37.600;2023-04-03T14:10:42;8.35;;;2.78;;
76576;SDS011;65441;44.748;37.600;2023-04-03T14:13:12;8.18;;;2.50;;
76576;SDS011;65441;44.748;37.600;2023-04-03T14:15:42;6.70;;;2.90;;
76576;SDS011;65441;44.748;37.600;2023-04-03T14:18:12;8.68;;;2.58;;
76576;SDS011;65441;44.748;37.600;2023-04-03T14:20:46;6.25;;;2.42;;
76576;SDS011;65441;44.748;37.600;2023-04-03T14:23:17;5.88;;;2.13;;
76576;SDS011;65441;44.748;37.600;2023-04-03T14:25:45;7.72;;;2.65;;
76576;SDS011;65441;44.748;37.600;2023-04-03T14:28:16;9.18;;;2.58;;
76576;SDS011;65441;44.748;37.600;2023-04-03T14:30:48;7.88;;;2.78;;
76576;SDS011;65441;44.748;37.600;2023-04-03T14:33:18;6.70;;;1.98;;
76576;SDS011;65441;44.748;37.600;2023-04-03T14:35:50;8.05;;;2.60;;
76576;SDS011;65441;44.748;37.600;2023-04-03T14:38:21;8.70;;;2.50;;
76576;SDS011;65441;44.748;37.600;2023-04-03T14:40:53;6.30;;;2.10;;
76576;SDS011;65441;44.748;37.600;2023-04-03T14:43:23;5.03;;;2.03;;
76576;SDS011;65441;44.748;37.600;2023-04-03T14:45:53;8.95;;;3.33;;
76576;SDS011;65441;44.748;37.600;2023-04-03T14:48:23;7.07;;;2.60;;
76576;SDS011;65441;44.748;37.600;2023-04-03T14:50:56;9.23;;;2.40;;
76576;SDS011;65441;44.748;37.600;2023-04-03T14:53:25;7.18;;;2.50;;
76576;SDS011;65441;44.748;37.600;2023-04-03T14:55:56;6.75;;;2.83;;
76576;SDS011;65441;44.748;37.600;2023-04-03T14:58:26;6.03;;;2.50;;
76576;SDS011;65441;44.748;37.600;2023-04-03T15:00:56;5.13;;;2.20;;
76576;SDS011;65441;44.748;37.600;2023-04-03T15:03:25;9.13;;;2.33;;
76576;SDS011;65441;44.748;37.600;2023-04-03T15:05:53;9.85;;;2.40;;
76576;SDS011;65441;44.748;37.600;2023-04-03T15:08:25;6.68;;;1.90;;
76576;SDS011;65441;44.748;37.600;2023-04-03T15:10:57;6.15;;;2.10;;
76576;SDS011;65441;44.748;37.600;2023-04-03T15:13:27;6.20;;;2.08;;
76576;SDS011;65441;44.748;37.600;2023-04-03T15:15:56;6.13;;;2.17;;
76576;SDS011;65441;44.748;37.600;2023-04-03T15:18:26;5.90;;;1.77;;
76576;SDS011;65441;44.748;37.600;2023-04-03T15:20:59;7.93;;;2.40;;
76576;SDS011;65441;44.748;37.600;2023-04-03T15:23:28;7.97;;;2.33;;
76576;SDS011;65441;44.748;37.600;2023-04-03T15:25:57;5.85;;;1.88;;
76576;SDS011;65441;44.748;37.600;2023-04-03T15:28:27;7.97;;;2.28;;
76576;SDS011;65441;44.748;37.600;2023-04-03T15:30:58;8.32;;;2.00;;